Live aus Altenrhein
LIVE
LSZR 261550Z AUTO 25004KT 210V290 9999 -RA OVC013 04/03 Q1011

People´s Info Center:

Öffnungszeiten Mo-Fr, 8-18 Uhr

 

info@peoples.ch

 
Aus Österreich:

T: +43 (0)5572 203 610

 

Aus CH / LI / DE:

T: +41 (0)71 858 51 60

 

Flughafen St. Gallen-Altenrhein: Abflug

 

Aktueller Flugstatus Abflüge
Plan Erw. nach Flug Info
06:30 06:30 Wien PE100
gelandet
10:40 11:15 Wien PE102
gelandet
14:20 14:50 Wien PE104
gelandet
18:15 18:15 Wien PE106
planmässig

Flughafen St. Gallen-Altenrhein: Ankunft

 

Aktueller Flugstatus Ankünfte
Plan Erw. von Flug Info
09:10 09:10 Wien PE101
gelandet
13:50 13:50 Wien PE103
gelandet
16:50 17:35 Wien PE105
gelandet
20:55 20:55 Wien PE107
planmässig